sensor_id;sensor_type;location;lat;lon;timestamp;P1;durP1;ratioP1;P2;durP2;ratioP2
56043;SDS011;41912;51.022;3.664;2022-12-19T00:00:17;29.23;;;11.68;;
56043;SDS011;41912;51.022;3.664;2022-12-19T00:02:48;23.20;;;11.05;;
56043;SDS011;41912;51.022;3.664;2022-12-19T00:05:14;25.70;;;11.85;;
56043;SDS011;41912;51.022;3.664;2022-12-19T00:07:43;28.70;;;11.07;;
56043;SDS011;41912;51.022;3.664;2022-12-19T00:10:11;26.45;;;11.93;;
56043;SDS011;41912;51.022;3.664;2022-12-19T00:12:37;26.63;;;12.18;;
56043;SDS011;41912;51.022;3.664;2022-12-19T00:15:03;23.63;;;11.35;;
56043;SDS011;41912;51.022;3.664;2022-12-19T00:17:29;28.73;;;11.32;;
56043;SDS011;41912;51.022;3.664;2022-12-19T00:19:55;26.52;;;11.50;;
56043;SDS011;41912;51.022;3.664;2022-12-19T00:22:21;26.95;;;11.48;;
56043;SDS011;41912;51.022;3.664;2022-12-19T00:24:46;28.13;;;10.88;;
56043;SDS011;41912;51.022;3.664;2022-12-19T00:27:12;23.70;;;10.57;;
56043;SDS011;41912;51.022;3.664;2022-12-19T00:29:38;24.70;;;11.57;;
56043;SDS011;41912;51.022;3.664;2022-12-19T00:32:03;22.05;;;10.63;;
56043;SDS011;41912;51.022;3.664;2022-12-19T00:34:29;23.90;;;10.57;;
56043;SDS011;41912;51.022;3.664;2022-12-19T00:36:55;25.98;;;10.75;;
56043;SDS011;41912;51.022;3.664;2022-12-19T00:39:20;28.88;;;12.15;;
56043;SDS011;41912;51.022;3.664;2022-12-19T00:41:46;23.20;;;11.20;;
56043;SDS011;41912;51.022;3.664;2022-12-19T00:44:12;22.17;;;10.30;;
56043;SDS011;41912;51.022;3.664;2022-12-19T00:46:40;22.67;;;10.75;;
56043;SDS011;41912;51.022;3.664;2022-12-19T00:49:06;21.95;;;11.15;;
56043;SDS011;41912;51.022;3.664;2022-12-19T00:51:32;22.65;;;10.27;;
56043;SDS011;41912;51.022;3.664;2022-12-19T00:53:59;19.13;;;10.00;;
56043;SDS011;41912;51.022;3.664;2022-12-19T00:56:30;19.23;;;10.02;;
56043;SDS011;41912;51.022;3.664;2022-12-19T00:58:57;22.60;;;10.27;;
56043;SDS011;41912;51.022;3.664;2022-12-19T01:01:26;20.80;;;10.63;;
56043;SDS011;41912;51.022;3.664;2022-12-19T01:03:52;19.45;;;9.25;;
56043;SDS011;41912;51.022;3.664;2022-12-19T01:06:19;23.80;;;9.60;;
56043;SDS011;41912;51.022;3.664;2022-12-19T01:08:44;21.90;;;8.93;;
56043;SDS011;41912;51.022;3.664;2022-12-19T01:11:10;22.17;;;9.93;;
56043;SDS011;41912;51.022;3.664;2022-12-19T01:13:37;16.23;;;8.90;;
56043;SDS011;41912;51.022;3.664;2022-12-19T01:16:08;21.35;;;9.05;;
56043;SDS011;41912;51.022;3.664;2022-12-19T01:18:36;16.20;;;8.75;;
56043;SDS011;41912;51.022;3.664;2022-12-19T01:21:04;23.60;;;9.55;;
56043;SDS011;41912;51.022;3.664;2022-12-19T01:23:32;21.45;;;9.18;;
56043;SDS011;41912;51.022;3.664;2022-12-19T01:25:58;18.05;;;8.82;;
56043;SDS011;41912;51.022;3.664;2022-12-19T01:28:24;19.88;;;10.25;;
56043;SDS011;41912;51.022;3.664;2022-12-19T01:30:50;17.40;;;9.40;;
56043;SDS011;41912;51.022;3.664;2022-12-19T01:33:16;27.52;;;10.88;;
56043;SDS011;41912;51.022;3.664;2022-12-19T01:35:44;22.38;;;10.63;;
56043;SDS011;41912;51.022;3.664;2022-12-19T01:38:16;25.70;;;11.75;;
56043;SDS011;41912;51.022;3.664;2022-12-19T01:40:53;26.17;;;10.50;;
56043;SDS011;41912;51.022;3.664;2022-12-19T01:43:20;23.83;;;11.25;;
56043;SDS011;41912;51.022;3.664;2022-12-19T01:45:47;27.10;;;12.55;;
56043;SDS011;41912;51.022;3.664;2022-12-19T01:48:25;27.48;;;11.43;;
56043;SDS011;41912;51.022;3.664;2022-12-19T01:51:11;24.98;;;10.95;;
56043;SDS011;41912;51.022;3.664;2022-12-19T01:53:46;23.50;;;10.85;;
56043;SDS011;41912;51.022;3.664;2022-12-19T01:56:25;25.33;;;11.23;;
56043;SDS011;41912;51.022;3.664;2022-12-19T01:58:55;23.33;;;10.98;;
56043;SDS011;41912;51.022;3.664;2022-12-19T02:01:25;23.15;;;10.68;;
56043;SDS011;41912;51.022;3.664;2022-12-19T02:03:51;25.20;;;11.35;;
56043;SDS011;41912;51.022;3.664;2022-12-19T02:06:18;28.65;;;12.07;;
56043;SDS011;41912;51.022;3.664;2022-12-19T02:08:46;23.38;;;11.07;;
56043;SDS011;41912;51.022;3.664;2022-12-19T02:11:14;21.15;;;11.18;;
56043;SDS011;41912;51.022;3.664;2022-12-19T02:13:40;25.50;;;11.50;;
56043;SDS011;41912;51.022;3.664;2022-12-19T02:16:43;25.80;;;12.35;;
56043;SDS011;41912;51.022;3.664;2022-12-19T02:19:19;24.30;;;10.77;;
56043;SDS011;41912;51.022;3.664;2022-12-19T02:22:07;24.73;;;11.02;;
56043;SDS011;41912;51.022;3.664;2022-12-19T02:30:26;26.08;;;12.10;;
56043;SDS011;41912;51.022;3.664;2022-12-19T02:35:56;24.30;;;11.70;;
56043;SDS011;41912;51.022;3.664;2022-12-19T02:38:35;21.45;;;10.75;;
56043;SDS011;41912;51.022;3.664;2022-12-19T02:41:09;21.38;;;10.82;;
56043;SDS011;41912;51.022;3.664;2022-12-19T02:43:53;24.33;;;11.50;;
56043;SDS011;41912;51.022;3.664;2022-12-19T02:46:21;22.83;;;11.57;;
56043;SDS011;41912;51.022;3.664;2022-12-19T02:48:48;23.63;;;10.45;;
56043;SDS011;41912;51.022;3.664;2022-12-19T02:51:14;20.95;;;11.38;;
56043;SDS011;41912;51.022;3.664;2022-12-19T02:53:40;22.63;;;11.13;;
56043;SDS011;41912;51.022;3.664;2022-12-19T03:02:18;21.13;;;11.98;;
56043;SDS011;41912;51.022;3.664;2022-12-19T03:04:38;20.30;;;10.95;;
56043;SDS011;41912;51.022;3.664;2022-12-19T03:10:17;21.65;;;10.52;;
56043;SDS011;41912;51.022;3.664;2022-12-19T03:12:59;20.73;;;10.73;;
56043;SDS011;41912;51.022;3.664;2022-12-19T03:15:31;21.10;;;11.15;;
56043;SDS011;41912;51.022;3.664;2022-12-19T03:17:58;24.73;;;11.85;;
56043;SDS011;41912;51.022;3.664;2022-12-19T03:20:27;21.23;;;10.23;;
56043;SDS011;41912;51.022;3.664;2022-12-19T03:23:15;22.20;;;10.68;;
56043;SDS011;41912;51.022;3.664;2022-12-19T03:25:42;27.00;;;11.20;;
56043;SDS011;41912;51.022;3.664;2022-12-19T03:28:12;25.75;;;10.55;;
56043;SDS011;41912;51.022;3.664;2022-12-19T03:30:45;22.63;;;10.57;;
56043;SDS011;41912;51.022;3.664;2022-12-19T03:33:11;25.90;;;11.45;;
56043;SDS011;41912;51.022;3.664;2022-12-19T03:35:40;24.88;;;11.40;;
56043;SDS011;41912;51.022;3.664;2022-12-19T03:38:07;26.60;;;10.80;;
56043;SDS011;41912;51.022;3.664;2022-12-19T03:40:34;22.10;;;10.23;;
56043;SDS011;41912;51.022;3.664;2022-12-19T03:43:03;22.65;;;10.65;;
56043;SDS011;41912;51.022;3.664;2022-12-19T03:48:13;27.48;;;10.57;;
56043;SDS011;41912;51.022;3.664;2022-12-19T03:51:01;18.38;;;9.45;;
56043;SDS011;41912;51.022;3.664;2022-12-19T03:53:37;28.88;;;11.13;;
56043;SDS011;41912;51.022;3.664;2022-12-19T03:56:32;18.75;;;9.90;;
56043;SDS011;41912;51.022;3.664;2022-12-19T03:59:15;19.30;;;10.90;;
56043;SDS011;41912;51.022;3.664;2022-12-19T04:01:55;22.33;;;10.48;;
56043;SDS011;41912;51.022;3.664;2022-12-19T04:04:22;27.17;;;9.88;;
56043;SDS011;41912;51.022;3.664;2022-12-19T04:06:50;23.52;;;10.45;;
56043;SDS011;41912;51.022;3.664;2022-12-19T04:09:17;23.83;;;10.43;;
56043;SDS011;41912;51.022;3.664;2022-12-19T04:11:47;20.10;;;10.50;;
56043;SDS011;41912;51.022;3.664;2022-12-19T04:14:19;21.17;;;9.80;;
56043;SDS011;41912;51.022;3.664;2022-12-19T04:16:56;18.80;;;9.05;;
56043;SDS011;41912;51.022;3.664;2022-12-19T04:19:45;22.27;;;10.30;;
56043;SDS011;41912;51.022;3.664;2022-12-19T04:22:31;25.92;;;9.32;;
56043;SDS011;41912;51.022;3.664;2022-12-19T04:25:07;21.10;;;9.30;;
56043;SDS011;41912;51.022;3.664;2022-12-19T04:27:37;20.27;;;9.38;;
56043;SDS011;41912;51.022;3.664;2022-12-19T04:30:07;21.77;;;10.73;;
56043;SDS011;41912;51.022;3.664;2022-12-19T04:32:36;22.42;;;9.93;;
56043;SDS011;41912;51.022;3.664;2022-12-19T04:35:06;21.33;;;10.13;;
56043;SDS011;41912;51.022;3.664;2022-12-19T04:37:31;21.42;;;10.23;;
56043;SDS011;41912;51.022;3.664;2022-12-19T04:39:57;19.33;;;10.13;;
56043;SDS011;41912;51.022;3.664;2022-12-19T04:42:23;19.77;;;9.18;;
56043;SDS011;41912;51.022;3.664;2022-12-19T04:44:49;18.92;;;9.10;;
56043;SDS011;41912;51.022;3.664;2022-12-19T04:47:14;21.23;;;10.50;;
56043;SDS011;41912;51.022;3.664;2022-12-19T04:49:40;19.58;;;9.82;;
56043;SDS011;41912;51.022;3.664;2022-12-19T04:52:05;22.67;;;9.32;;
56043;SDS011;41912;51.022;3.664;2022-12-19T04:54:31;17.48;;;9.60;;
56043;SDS011;41912;51.022;3.664;2022-12-19T04:56:57;18.55;;;9.48;;
56043;SDS011;41912;51.022;3.664;2022-12-19T04:59:23;18.52;;;9.25;;
56043;SDS011;41912;51.022;3.664;2022-12-19T05:01:48;19.85;;;9.82;;
56043;SDS011;41912;51.022;3.664;2022-12-19T05:04:14;24.25;;;9.88;;
56043;SDS011;41912;51.022;3.664;2022-12-19T05:06:40;22.00;;;9.27;;
56043;SDS011;41912;51.022;3.664;2022-12-19T05:09:05;23.00;;;9.27;;
56043;SDS011;41912;51.022;3.664;2022-12-19T05:11:31;17.40;;;8.68;;
56043;SDS011;41912;51.022;3.664;2022-12-19T05:13:57;22.20;;;9.90;;
56043;SDS011;41912;51.022;3.664;2022-12-19T05:16:23;17.35;;;9.77;;
56043;SDS011;41912;51.022;3.664;2022-12-19T05:18:49;17.23;;;9.10;;
56043;SDS011;41912;51.022;3.664;2022-12-19T05:21:14;22.20;;;8.75;;
56043;SDS011;41912;51.022;3.664;2022-12-19T05:23:40;21.35;;;9.00;;
56043;SDS011;41912;51.022;3.664;2022-12-19T05:26:06;16.23;;;7.72;;
56043;SDS011;41912;51.022;3.664;2022-12-19T05:28:32;18.20;;;9.48;;
56043;SDS011;41912;51.022;3.664;2022-12-19T05:31:32;19.63;;;8.45;;
56043;SDS011;41912;51.022;3.664;2022-12-19T05:33:50;19.13;;;8.57;;
56043;SDS011;41912;51.022;3.664;2022-12-19T05:36:16;17.92;;;8.18;;
56043;SDS011;41912;51.022;3.664;2022-12-19T05:38:42;19.48;;;8.48;;
56043;SDS011;41912;51.022;3.664;2022-12-19T05:41:12;16.70;;;8.65;;
56043;SDS011;41912;51.022;3.664;2022-12-19T05:43:39;19.92;;;7.90;;
56043;SDS011;41912;51.022;3.664;2022-12-19T05:46:05;24.58;;;8.63;;
56043;SDS011;41912;51.022;3.664;2022-12-19T05:48:32;18.00;;;8.70;;
56043;SDS011;41912;51.022;3.664;2022-12-19T05:50:59;14.85;;;7.90;;
56043;SDS011;41912;51.022;3.664;2022-12-19T05:53:24;17.17;;;8.18;;
56043;SDS011;41912;51.022;3.664;2022-12-19T05:55:52;16.60;;;7.85;;
56043;SDS011;41912;51.022;3.664;2022-12-19T05:58:31;14.13;;;8.65;;
56043;SDS011;41912;51.022;3.664;2022-12-19T06:01:04;12.95;;;8.10;;
56043;SDS011;41912;51.022;3.664;2022-12-19T06:03:33;12.15;;;7.18;;
56043;SDS011;41912;51.022;3.664;2022-12-19T06:06:02;16.33;;;8.38;;
56043;SDS011;41912;51.022;3.664;2022-12-19T06:08:29;16.00;;;7.68;;
56043;SDS011;41912;51.022;3.664;2022-12-19T06:10:57;18.83;;;8.18;;
56043;SDS011;41912;51.022;3.664;2022-12-19T06:13:27;12.55;;;7.30;;
56043;SDS011;41912;51.022;3.664;2022-12-19T06:16:27;12.18;;;7.22;;
56043;SDS011;41912;51.022;3.664;2022-12-19T06:18:45;13.02;;;7.32;;
56043;SDS011;41912;51.022;3.664;2022-12-19T06:21:12;17.92;;;7.40;;
56043;SDS011;41912;51.022;3.664;2022-12-19T06:23:45;11.30;;;6.78;;
56043;SDS011;41912;51.022;3.664;2022-12-19T06:26:12;13.50;;;7.35;;
56043;SDS011;41912;51.022;3.664;2022-12-19T06:28:39;11.20;;;6.45;;
56043;SDS011;41912;51.022;3.664;2022-12-19T06:31:05;13.77;;;7.35;;
56043;SDS011;41912;51.022;3.664;2022-12-19T06:33:31;14.93;;;7.35;;
56043;SDS011;41912;51.022;3.664;2022-12-19T06:35:58;14.10;;;7.60;;
56043;SDS011;41912;51.022;3.664;2022-12-19T06:38:29;14.18;;;7.07;;
56043;SDS011;41912;51.022;3.664;2022-12-19T06:40:55;16.85;;;7.63;;
56043;SDS011;41912;51.022;3.664;2022-12-19T06:43:40;11.70;;;6.57;;
56043;SDS011;41912;51.022;3.664;2022-12-19T06:46:06;10.57;;;6.25;;
56043;SDS011;41912;51.022;3.664;2022-12-19T06:48:31;14.70;;;6.22;;
56043;SDS011;41912;51.022;3.664;2022-12-19T06:50:57;11.15;;;6.20;;
56043;SDS011;41912;51.022;3.664;2022-12-19T06:53:23;12.73;;;7.38;;
56043;SDS011;41912;51.022;3.664;2022-12-19T06:55:49;12.98;;;6.43;;
56043;SDS011;41912;51.022;3.664;2022-12-19T06:58:17;11.45;;;6.05;;
56043;SDS011;41912;51.022;3.664;2022-12-19T07:00:43;13.68;;;6.72;;
56043;SDS011;41912;51.022;3.664;2022-12-19T07:03:09;12.18;;;6.45;;
56043;SDS011;41912;51.022;3.664;2022-12-19T07:05:39;9.70;;;5.82;;
56043;SDS011;41912;51.022;3.664;2022-12-19T07:08:07;18.50;;;7.10;;
56043;SDS011;41912;51.022;3.664;2022-12-19T07:10:33;9.88;;;6.30;;
56043;SDS011;41912;51.022;3.664;2022-12-19T07:12:59;11.73;;;6.82;;
56043;SDS011;41912;51.022;3.664;2022-12-19T07:15:24;15.57;;;6.75;;
56043;SDS011;41912;51.022;3.664;2022-12-19T07:17:50;9.65;;;6.35;;
56043;SDS011;41912;51.022;3.664;2022-12-19T07:20:17;10.88;;;6.18;;
56043;SDS011;41912;51.022;3.664;2022-12-19T07:22:45;16.25;;;6.68;;
56043;SDS011;41912;51.022;3.664;2022-12-19T07:25:11;14.15;;;6.40;;
56043;SDS011;41912;51.022;3.664;2022-12-19T07:27:38;10.60;;;6.50;;
56043;SDS011;41912;51.022;3.664;2022-12-19T07:30:04;17.88;;;8.07;;
56043;SDS011;41912;51.022;3.664;2022-12-19T07:32:31;12.30;;;6.18;;
56043;SDS011;41912;51.022;3.664;2022-12-19T07:34:57;13.55;;;6.35;;
56043;SDS011;41912;51.022;3.664;2022-12-19T07:37:23;12.48;;;6.95;;
56043;SDS011;41912;51.022;3.664;2022-12-19T07:39:48;11.65;;;6.20;;
56043;SDS011;41912;51.022;3.664;2022-12-19T07:42:14;10.65;;;5.90;;
56043;SDS011;41912;51.022;3.664;2022-12-19T07:44:40;9.23;;;5.28;;
56043;SDS011;41912;51.022;3.664;2022-12-19T07:47:05;12.40;;;5.68;;
56043;SDS011;41912;51.022;3.664;2022-12-19T07:49:31;10.98;;;6.03;;
56043;SDS011;41912;51.022;3.664;2022-12-19T07:51:57;10.55;;;5.90;;
56043;SDS011;41912;51.022;3.664;2022-12-19T07:54:23;11.05;;;6.13;;
56043;SDS011;41912;51.022;3.664;2022-12-19T07:56:49;12.88;;;6.00;;
56043;SDS011;41912;51.022;3.664;2022-12-19T07:59:15;14.05;;;6.40;;
56043;SDS011;41912;51.022;3.664;2022-12-19T08:01:40;16.83;;;5.78;;
56043;SDS011;41912;51.022;3.664;2022-12-19T08:04:06;9.18;;;5.50;;
56043;SDS011;41912;51.022;3.664;2022-12-19T08:06:31;14.13;;;5.65;;
56043;SDS011;41912;51.022;3.664;2022-12-19T08:08:57;11.82;;;5.63;;
56043;SDS011;41912;51.022;3.664;2022-12-19T08:11:23;13.73;;;5.18;;
56043;SDS011;41912;51.022;3.664;2022-12-19T08:13:53;10.35;;;6.00;;
56043;SDS011;41912;51.022;3.664;2022-12-19T08:16:19;10.68;;;5.63;;
56043;SDS011;41912;51.022;3.664;2022-12-19T08:18:45;10.07;;;6.18;;
56043;SDS011;41912;51.022;3.664;2022-12-19T08:21:12;8.90;;;5.30;;
56043;SDS011;41912;51.022;3.664;2022-12-19T08:23:38;11.07;;;5.78;;
56043;SDS011;41912;51.022;3.664;2022-12-19T08:26:05;12.00;;;5.78;;
56043;SDS011;41912;51.022;3.664;2022-12-19T08:28:32;10.23;;;5.10;;
56043;SDS011;41912;51.022;3.664;2022-12-19T08:31:04;12.63;;;5.32;;
56043;SDS011;41912;51.022;3.664;2022-12-19T08:33:34;9.80;;;5.38;;
56043;SDS011;41912;51.022;3.664;2022-12-19T08:36:04;7.93;;;5.18;;
56043;SDS011;41912;51.022;3.664;2022-12-19T08:38:32;7.88;;;4.60;;
56043;SDS011;41912;51.022;3.664;2022-12-19T08:40:58;10.65;;;5.35;;
56043;SDS011;41912;51.022;3.664;2022-12-19T08:43:24;10.73;;;4.97;;
56043;SDS011;41912;51.022;3.664;2022-12-19T08:45:51;7.75;;;5.22;;
56043;SDS011;41912;51.022;3.664;2022-12-19T08:48:17;10.63;;;4.60;;
56043;SDS011;41912;51.022;3.664;2022-12-19T08:50:52;9.40;;;4.60;;
56043;SDS011;41912;51.022;3.664;2022-12-19T08:53:22;9.38;;;4.93;;
56043;SDS011;41912;51.022;3.664;2022-12-19T08:55:56;9.95;;;4.82;;
56043;SDS011;41912;51.022;3.664;2022-12-19T08:58:23;7.50;;;4.60;;
56043;SDS011;41912;51.022;3.664;2022-12-19T09:00:50;12.05;;;5.30;;
56043;SDS011;41912;51.022;3.664;2022-12-19T09:03:17;13.95;;;6.03;;
56043;SDS011;41912;51.022;3.664;2022-12-19T09:05:44;11.63;;;6.28;;
56043;SDS011;41912;51.022;3.664;2022-12-19T09:08:10;11.88;;;5.88;;
56043;SDS011;41912;51.022;3.664;2022-12-19T09:10:36;19.77;;;7.28;;
56043;SDS011;41912;51.022;3.664;2022-12-19T09:13:03;11.88;;;6.25;;
56043;SDS011;41912;51.022;3.664;2022-12-19T09:15:29;10.10;;;5.90;;
56043;SDS011;41912;51.022;3.664;2022-12-19T09:17:55;15.52;;;6.20;;
56043;SDS011;41912;51.022;3.664;2022-12-19T09:20:21;10.23;;;5.10;;
56043;SDS011;41912;51.022;3.664;2022-12-19T09:22:47;8.52;;;4.85;;
56043;SDS011;41912;51.022;3.664;2022-12-19T09:25:12;10.82;;;5.38;;
56043;SDS011;41912;51.022;3.664;2022-12-19T09:27:38;9.25;;;5.22;;
56043;SDS011;41912;51.022;3.664;2022-12-19T09:30:04;8.25;;;5.07;;
56043;SDS011;41912;51.022;3.664;2022-12-19T09:32:30;12.02;;;5.55;;
56043;SDS011;41912;51.022;3.664;2022-12-19T09:34:56;11.65;;;5.95;;
56043;SDS011;41912;51.022;3.664;2022-12-19T09:37:21;13.73;;;5.90;;
56043;SDS011;41912;51.022;3.664;2022-12-19T09:39:47;11.10;;;5.00;;
56043;SDS011;41912;51.022;3.664;2022-12-19T09:48:01;13.65;;;5.15;;
56043;SDS011;41912;51.022;3.664;2022-12-19T09:53:06;10.10;;;4.72;;
56043;SDS011;41912;51.022;3.664;2022-12-19T09:55:51;9.35;;;4.68;;
56043;SDS011;41912;51.022;3.664;2022-12-19T09:58:31;12.90;;;5.72;;
56043;SDS011;41912;51.022;3.664;2022-12-19T10:01:05;11.52;;;5.93;;
56043;SDS011;41912;51.022;3.664;2022-12-19T10:03:40;9.15;;;5.18;;
56043;SDS011;41912;51.022;3.664;2022-12-19T10:06:18;13.68;;;4.88;;
56043;SDS011;41912;51.022;3.664;2022-12-19T10:08:46;10.90;;;5.88;;
56043;SDS011;41912;51.022;3.664;2022-12-19T10:14:00;11.40;;;5.55;;
56043;SDS011;41912;51.022;3.664;2022-12-19T10:16:47;8.95;;;5.45;;
56043;SDS011;41912;51.022;3.664;2022-12-19T10:19:33;11.15;;;4.35;;
56043;SDS011;41912;51.022;3.664;2022-12-19T10:22:26;10.55;;;5.40;;
56043;SDS011;41912;51.022;3.664;2022-12-19T10:25:20;12.55;;;4.85;;
56043;SDS011;41912;51.022;3.664;2022-12-19T10:31:37;11.25;;;5.10;;
56043;SDS011;41912;51.022;3.664;2022-12-19T10:33:51;6.88;;;4.43;;
56043;SDS011;41912;51.022;3.664;2022-12-19T10:36:38;10.25;;;5.07;;
56043;SDS011;41912;51.022;3.664;2022-12-19T10:45:12;9.80;;;4.00;;
56043;SDS011;41912;51.022;3.664;2022-12-19T10:47:40;8.68;;;4.25;;
56043;SDS011;41912;51.022;3.664;2022-12-19T10:50:10;10.93;;;4.43;;
56043;SDS011;41912;51.022;3.664;2022-12-19T10:52:45;6.95;;;4.32;;
56043;SDS011;41912;51.022;3.664;2022-12-19T10:55:20;7.75;;;4.03;;
56043;SDS011;41912;51.022;3.664;2022-12-19T10:58:10;9.38;;;5.78;;
56043;SDS011;41912;51.022;3.664;2022-12-19T11:00:36;8.23;;;4.30;;
56043;SDS011;41912;51.022;3.664;2022-12-19T11:03:11;7.15;;;4.35;;
56043;SDS011;41912;51.022;3.664;2022-12-19T11:05:52;8.57;;;4.47;;
56043;SDS011;41912;51.022;3.664;2022-12-19T11:08:23;8.32;;;4.47;;
56043;SDS011;41912;51.022;3.664;2022-12-19T11:11:09;8.60;;;4.63;;
56043;SDS011;41912;51.022;3.664;2022-12-19T11:16:03;6.43;;;4.00;;
56043;SDS011;41912;51.022;3.664;2022-12-19T11:18:37;10.52;;;3.85;;
56043;SDS011;41912;51.022;3.664;2022-12-19T11:24:00;8.68;;;3.85;;
56043;SDS011;41912;51.022;3.664;2022-12-19T11:26:39;6.00;;;3.88;;
56043;SDS011;41912;51.022;3.664;2022-12-19T11:31:44;7.60;;;3.53;;
56043;SDS011;41912;51.022;3.664;2022-12-19T11:34:15;9.05;;;3.95;;
56043;SDS011;41912;51.022;3.664;2022-12-19T11:44:48;8.65;;;3.50;;
56043;SDS011;41912;51.022;3.664;2022-12-19T11:50:20;8.75;;;3.35;;
56043;SDS011;41912;51.022;3.664;2022-12-19T11:55:39;7.82;;;3.90;;
56043;SDS011;41912;51.022;3.664;2022-12-19T11:58:12;6.18;;;3.40;;
56043;SDS011;41912;51.022;3.664;2022-12-19T12:06:29;11.33;;;3.70;;
56043;SDS011;41912;51.022;3.664;2022-12-19T12:09:10;6.82;;;3.53;;
56043;SDS011;41912;51.022;3.664;2022-12-19T12:14:21;9.30;;;4.00;;
56043;SDS011;41912;51.022;3.664;2022-12-19T12:16:55;6.63;;;3.80;;
56043;SDS011;41912;51.022;3.664;2022-12-19T12:36:30;5.03;;;3.08;;
56043;SDS011;41912;51.022;3.664;2022-12-19T12:39:02;8.07;;;3.30;;
56043;SDS011;41912;51.022;3.664;2022-12-19T12:44:12;7.70;;;3.67;;
56043;SDS011;41912;51.022;3.664;2022-12-19T12:46:38;8.82;;;3.22;;
56043;SDS011;41912;51.022;3.664;2022-12-19T12:51:57;6.50;;;3.35;;
56043;SDS011;41912;51.022;3.664;2022-12-19T12:54:25;6.35;;;3.67;;
56043;SDS011;41912;51.022;3.664;2022-12-19T12:56:57;5.22;;;3.20;;
56043;SDS011;41912;51.022;3.664;2022-12-19T12:59:24;5.78;;;3.08;;
56043;SDS011;41912;51.022;3.664;2022-12-19T13:01:52;5.85;;;2.90;;
56043;SDS011;41912;51.022;3.664;2022-12-19T13:04:28;5.47;;;2.90;;
56043;SDS011;41912;51.022;3.664;2022-12-19T13:09:25;8.23;;;3.05;;
56043;SDS011;41912;51.022;3.664;2022-12-19T13:11:56;7.38;;;2.90;;
56043;SDS011;41912;51.022;3.664;2022-12-19T13:15:15;8.57;;;2.80;;
56043;SDS011;41912;51.022;3.664;2022-12-19T13:23:03;10.05;;;4.38;;
56043;SDS011;41912;51.022;3.664;2022-12-19T13:30:27;6.07;;;2.97;;
56043;SDS011;41912;51.022;3.664;2022-12-19T13:37:47;5.75;;;2.90;;
56043;SDS011;41912;51.022;3.664;2022-12-19T13:40:28;3.90;;;2.80;;
56043;SDS011;41912;51.022;3.664;2022-12-19T13:43:17;7.57;;;2.92;;
56043;SDS011;41912;51.022;3.664;2022-12-19T13:51:55;7.22;;;2.63;;
56043;SDS011;41912;51.022;3.664;2022-12-19T13:54:26;5.28;;;3.33;;
56043;SDS011;41912;51.022;3.664;2022-12-19T13:56:56;7.05;;;3.33;;
56043;SDS011;41912;51.022;3.664;2022-12-19T13:59:23;6.50;;;3.15;;
56043;SDS011;41912;51.022;3.664;2022-12-19T14:01:51;8.85;;;3.20;;
56043;SDS011;41912;51.022;3.664;2022-12-19T14:04:27;4.63;;;2.90;;
56043;SDS011;41912;51.022;3.664;2022-12-19T14:06:59;8.27;;;3.25;;
56043;SDS011;41912;51.022;3.664;2022-12-19T14:11:57;4.75;;;2.80;;
56043;SDS011;41912;51.022;3.664;2022-12-19T14:14:25;7.97;;;3.17;;
56043;SDS011;41912;51.022;3.664;2022-12-19T14:17:20;5.28;;;2.90;;
56043;SDS011;41912;51.022;3.664;2022-12-19T14:19:47;6.30;;;2.95;;
56043;SDS011;41912;51.022;3.664;2022-12-19T14:24:58;5.63;;;3.00;;
56043;SDS011;41912;51.022;3.664;2022-12-19T14:27:28;9.32;;;2.92;;
56043;SDS011;41912;51.022;3.664;2022-12-19T14:30:02;4.55;;;2.58;;
56043;SDS011;41912;51.022;3.664;2022-12-19T14:32:30;9.30;;;3.50;;
56043;SDS011;41912;51.022;3.664;2022-12-19T14:34:58;7.57;;;3.03;;
56043;SDS011;41912;51.022;3.664;2022-12-19T14:37:31;20.88;;;2.92;;
56043;SDS011;41912;51.022;3.664;2022-12-19T14:42:43;7.78;;;2.45;;
56043;SDS011;41912;51.022;3.664;2022-12-19T14:45:32;9.60;;;3.30;;
56043;SDS011;41912;51.022;3.664;2022-12-19T14:51:01;6.35;;;2.92;;
56043;SDS011;41912;51.022;3.664;2022-12-19T14:54:14;10.95;;;3.22;;
56043;SDS011;41912;51.022;3.664;2022-12-19T15:01:50;6.00;;;2.70;;
56043;SDS011;41912;51.022;3.664;2022-12-19T15:04:17;5.53;;;3.67;;
56043;SDS011;41912;51.022;3.664;2022-12-19T15:06:48;9.45;;;4.03;;
56043;SDS011;41912;51.022;3.664;2022-12-19T15:09:16;8.10;;;3.72;;
56043;SDS011;41912;51.022;3.664;2022-12-19T15:11:44;7.07;;;3.38;;
56043;SDS011;41912;51.022;3.664;2022-12-19T15:14:43;11.52;;;3.72;;
56043;SDS011;41912;51.022;3.664;2022-12-19T15:17:32;6.40;;;3.00;;
56043;SDS011;41912;51.022;3.664;2022-12-19T15:19:56;6.30;;;3.45;;
56043;SDS011;41912;51.022;3.664;2022-12-19T15:22:22;7.47;;;3.05;;
56043;SDS011;41912;51.022;3.664;2022-12-19T15:24:48;6.75;;;2.85;;
56043;SDS011;41912;51.022;3.664;2022-12-19T15:27:15;7.55;;;2.83;;
56043;SDS011;41912;51.022;3.664;2022-12-19T15:29:42;4.63;;;2.80;;
56043;SDS011;41912;51.022;3.664;2022-12-19T15:32:15;5.22;;;2.83;;
56043;SDS011;41912;51.022;3.664;2022-12-19T15:34:42;11.70;;;3.10;;
56043;SDS011;41912;51.022;3.664;2022-12-19T15:37:08;6.35;;;2.90;;
56043;SDS011;41912;51.022;3.664;2022-12-19T15:39:35;10.00;;;3.00;;
56043;SDS011;41912;51.022;3.664;2022-12-19T15:42:01;7.28;;;2.63;;
56043;SDS011;41912;51.022;3.664;2022-12-19T15:44:31;8.48;;;3.63;;
56043;SDS011;41912;51.022;3.664;2022-12-19T15:47:03;7.22;;;3.30;;
56043;SDS011;41912;51.022;3.664;2022-12-19T15:49:33;6.90;;;3.10;;
56043;SDS011;41912;51.022;3.664;2022-12-19T15:51:59;4.10;;;3.00;;
56043;SDS011;41912;51.022;3.664;2022-12-19T15:54:26;11.48;;;3.33;;
56043;SDS011;41912;51.022;3.664;2022-12-19T15:56:53;10.90;;;3.60;;
56043;SDS011;41912;51.022;3.664;2022-12-19T15:59:27;10.95;;;3.75;;
56043;SDS011;41912;51.022;3.664;2022-12-19T16:01:57;10.38;;;3.47;;
56043;SDS011;41912;51.022;3.664;2022-12-19T16:04:23;8.00;;;2.60;;
56043;SDS011;41912;51.022;3.664;2022-12-19T16:06:49;8.48;;;3.47;;
56043;SDS011;41912;51.022;3.664;2022-12-19T16:09:19;8.45;;;3.10;;
56043;SDS011;41912;51.022;3.664;2022-12-19T16:11:47;13.55;;;3.35;;
56043;SDS011;41912;51.022;3.664;2022-12-19T16:14:14;7.55;;;3.30;;
56043;SDS011;41912;51.022;3.664;2022-12-19T16:16:41;6.88;;;3.00;;
56043;SDS011;41912;51.022;3.664;2022-12-19T16:21:53;9.10;;;3.22;;
56043;SDS011;41912;51.022;3.664;2022-12-19T16:24:20;8.88;;;2.97;;
56043;SDS011;41912;51.022;3.664;2022-12-19T16:26:56;7.15;;;3.00;;
56043;SDS011;41912;51.022;3.664;2022-12-19T16:29:26;7.45;;;3.53;;
56043;SDS011;41912;51.022;3.664;2022-12-19T16:31:55;5.35;;;3.17;;
56043;SDS011;41912;51.022;3.664;2022-12-19T16:34:21;7.18;;;3.60;;
56043;SDS011;41912;51.022;3.664;2022-12-19T16:36:48;5.72;;;3.30;;
56043;SDS011;41912;51.022;3.664;2022-12-19T16:39:14;9.93;;;3.63;;
56043;SDS011;41912;51.022;3.664;2022-12-19T16:41:40;8.30;;;3.78;;
56043;SDS011;41912;51.022;3.664;2022-12-19T16:44:17;6.03;;;3.90;;
56043;SDS011;41912;51.022;3.664;2022-12-19T16:46:44;9.85;;;4.05;;
56043;SDS011;41912;51.022;3.664;2022-12-19T16:49:14;7.32;;;3.22;;
56043;SDS011;41912;51.022;3.664;2022-12-19T16:51:42;5.25;;;3.70;;
56043;SDS011;41912;51.022;3.664;2022-12-19T16:54:10;7.63;;;3.40;;
56043;SDS011;41912;51.022;3.664;2022-12-19T16:56:37;6.88;;;3.45;;
56043;SDS011;41912;51.022;3.664;2022-12-19T16:59:15;5.95;;;3.22;;
56043;SDS011;41912;51.022;3.664;2022-12-19T17:01:44;6.65;;;3.30;;
56043;SDS011;41912;51.022;3.664;2022-12-19T17:04:14;11.55;;;3.60;;
56043;SDS011;41912;51.022;3.664;2022-12-19T17:06:41;12.45;;;4.13;;
56043;SDS011;41912;51.022;3.664;2022-12-19T17:09:11;6.60;;;3.80;;